Skip to main content.

Nearby METAR Reports

 

KJYR - York, Nebraska, USA
Distance from station: NW 27mi, 43km
Updated: Tue, 23-Jan-2018 7:55am CST
Mist, Clear
Mist, Clear
 Wind from NNW
Wind: NNW 6 mph , 9 km/h
Temperature: 18°F , -8°C
Wind Chill: 10°F , -12°C
Dew Point: 18°F , -8°C
Humidity: 100%
Barometer: 30.12 inHg , 1020 hPa
Summary: Mist
Clouds: Clear
Visibility: 5 miles , 8 km
2018/01/23 13:55 KJYR 231355Z AUTO 33005KT 5SM BR CLR M08/M08 A3012 RMK AO2
KLNK - Lincoln, Nebraska, USA
Distance from station: ENE 27mi, 44km
Updated: Tue, 23-Jan-2018 7:54am CST
Overcast
Overcast
 Wind from N
Wind: N 10 mph , 17 km/h
Temperature: 23°F , -5°C
Wind Chill: 13°F , -11°C
Dew Point: 19°F , -7°C
Humidity: 86%
Barometer: 30.14 inHg , 1020.7 hPa
Clouds: Overcast
Visibility: 10 miles , 16 km
Cloud details: Overcast 1000 ft
2018/01/23 13:54 KLNK 231354Z 35009KT 10SM OVC010 M05/M07 A3014 RMK AO2 SNB00E41 SLP222 P0000 T10501072
 
KBIE - Beatrice Municip, Nebraska, USA
Distance from station: SE 36mi, 58km
Updated: Tue, 23-Jan-2018 7:55am CST
Overcast
Overcast
 Wind from NNW
Wind: NNW 14 mph , 22 km/h
Temperature: 25°F , -4°C
Wind Chill: 13°F , -11°C
Dew Point: 21°F , -6°C
Humidity: 86%
Barometer: 30.13 inHg , 1020.3 hPa
Clouds: Overcast
Visibility: 10 miles , 16 km
Cloud details: Overcast 1000 ft
2018/01/23 13:55 KBIE 231355Z AUTO 33012KT 10SM OVC010 M04/M06 A3013 RMK AO2 T10411056
KHJH - Hebron Muni, Nebraska, USA
Distance from station: SSW 40mi, 64km
Updated: Tue, 23-Jan-2018 7:55am CST
Clear
Clear
 Wind from W
Wind: W 3 mph , 6 km/h
Temperature: 16°F , -9°C
Dew Point: 14°F , -10°C
Humidity: 93%
Barometer: 30.15 inHg , 1021 hPa
Clouds: Clear
Visibility: 10 miles , 16 km
2018/01/23 13:55 KHJH 231355Z AUTO 28003KT 10SM CLR M09/M10 A3015 RMK AO2 T10941104
 
KAUH - Aurora, Nebraska, USA
Distance from station: WNW 44mi, 70km
Updated: Tue, 23-Jan-2018 7:55am CST

 Wind from NW
Wind: NW 8 mph , 13 km/h
Temperature: 10°F , -12°C
Wind Chill: -2°F , -19°C
Dew Point: 9°F , -13°C
Humidity: 92%
Barometer: 30.11 inHg , 1019.6 hPa
2018/01/23 13:55 KAUH 231355Z AUTO 31007KT M12/M13 A3011 RMK AO2 T11181130 PWINO
KAHQ - Wahoo, Nebraska, USA
Distance from station: NE 51mi, 82km
Updated: Tue, 23-Jan-2018 7:55am CST
Overcast
Overcast
 Wind from NNW
Wind: NNW 9 mph , 15 km/h
Temperature: 23°F , -5°C
Wind Chill: 13°F , -11°C
Dew Point: 19°F , -7°C
Humidity: 86%
Barometer: 30.12 inHg , 1020 hPa
Clouds: Overcast
Visibility: 10 miles , 16 km
Cloud details: Overcast 1100 ft
2018/01/23 13:55 KAHQ 231355Z AUTO 34008KT 10SM OVC011 M05/M07 A3012 RMK AO2 T10511070
 
KOLU - Columbus Muni, Nebraska, USA
Distance from station: N 55mi, 88km
Updated: Tue, 23-Jan-2018 7:56am CST
Overcast
Overcast
 Wind from NW
Wind: NW 12 mph , 19 km/h
Temperature: 19°F , -7°C
Wind Chill: 6°F , -14°C
Dew Point: 19°F , -7°C
Humidity: 100%
Barometer: 30.13 inHg , 1020.3 hPa
Clouds: Overcast
Visibility: 10 miles , 16 km
Cloud details: Overcast 700 ft
2018/01/23 13:56 KOLU 231356Z AUTO 31010KT 10SM OVC007 M07/M07 A3013 RMK AO2 SLP227 T10671072 FZRANO
KGRI - Grand Island, Nebraska, USA
Distance from station: WNW 61mi, 99km
Updated: Tue, 23-Jan-2018 7:53am CST
Clear
Clear
 Wind from WNW
Wind: WNW 10 mph , 17 km/h
Temperature: 16°F , -9°C
Wind Chill: 4°F , -16°C
Dew Point: 10°F , -12°C
Humidity: 79%
Barometer: 30.11 inHg , 1019.6 hPa
Clouds: Clear
Visibility: 10 miles , 16 km
2018/01/23 13:53 KGRI 231353Z 29009KT 10SM CLR M09/M12 A3011 RMK AO2 SLP228 T10941117 PNO $
 
KHSI - Hastings, Nebraska, USA
Distance from station: W 64mi, 103km
Updated: Tue, 23-Jan-2018 7:53am CST
Clear
Clear
 Wind from NW
Wind: NW 12 mph , 19 km/h
Temperature: 18°F , -8°C
Wind Chill: 5°F , -15°C
Dew Point: 12°F , -11°C
Humidity: 79%
Barometer: 30.11 inHg , 1019.6 hPa
Clouds: Clear
Visibility: 10 miles , 16 km
2018/01/23 13:53 KHSI 231353Z AUTO 31010KT 10SM CLR M08/M11 A3011 RMK AO2 SLP223 T10781111 PNO $
KFET - Fremont Muni Arp, Nebraska, USA
Distance from station: NNE 66mi, 106km
Updated: Tue, 23-Jan-2018 7:55am CST

 
2018/01/23 13:55 KFET 231355Z AUTO RMK AO2 PWINO TSNO
 
KMLE - Omaha/Millard, Nebraska, USA
Distance from station: NE 69mi, 110km
Updated: Tue, 23-Jan-2018 7:55am CST
Overcast
Overcast
 Wind from NW
Wind: NW 12 mph , 19 km/h
Temperature: 25°F , -4°C
Wind Chill: 14°F , -10°C
Dew Point: 19°F , -7°C
Humidity: 80%
Barometer: 30.13 inHg , 1020.3 hPa
Clouds: Overcast
Visibility: 10 miles , 16 km
Cloud details: Overcast 1100 ft
2018/01/23 13:55 KMLE 231355Z AUTO 31010KT 10SM OVC011 M04/M07 A3013 RMK AO2 T10451067
KPMV - Plattsmouth Muni, Nebraska, USA
Distance from station: ENE 71mi, 114km
Updated: Tue, 23-Jan-2018 7:55am CST
Overcast
Overcast
 Wind from WNW
Wind: WNW 12 mph , 19 km/h, Gust: 16 mph , 26 km/h
Temperature: 23°F , -5°C
Wind Chill: 11°F , -12°C
Dew Point: 21°F , -6°C
Humidity: 93%
Barometer: 30.10 inHg , 1019.3 hPa
Clouds: Overcast
Visibility: 10 miles , 16 km
Cloud details: Overcast 1000 ft
2018/01/23 13:55 KPMV 231355Z AUTO 30010G14KT 10SM OVC010 M05/M06 A3010 RMK AO2 T10471060
 
KAFK - Nebraska City, Nebraska, USA
Distance from station: E 72mi, 116km
Updated: Tue, 23-Jan-2018 7:55am CST
Overcast
Overcast
 Wind from NNW
Wind: NNW 12 mph , 19 km/h
Temperature: 25°F , -4°C
Wind Chill: 14°F , -10°C
Dew Point: 25°F , -4°C
Humidity: 100%
Barometer: 30.11 inHg , 1019.6 hPa
Clouds: Overcast
Visibility: 10 miles , 16 km
Cloud details: Overcast 1100 ft
2018/01/23 13:55 KAFK 231355Z AUTO 34010KT 10SM OVC011 M04/M04 A3011 RMK AO2 T10451045
KOFF - Offutt Afb/Belle, Nebraska, USA
Distance from station: ENE 75mi, 121km
Updated: Tue, 23-Jan-2018 7:56am CST
Overcast
Overcast
 Wind from NNW
Wind: NNW 9 mph , 15 km/h
Temperature: 25°F , -4°C
Wind Chill: 16°F , -9°C
Dew Point: 19°F , -7°C
Humidity: 80%
Barometer: 30.11 inHg , 1019.6 hPa
Clouds: Overcast
Visibility: 10 miles , 16 km
Cloud details: Overcast 1000 ft
2018/01/23 13:56 KOFF 231356Z 34008KT 10SM OVC010 M04/M07 A3011 RMK AO2A SLP214 T10451068 $
 
KBTA - Blair Muni, Nebraska, USA
Distance from station: NE 78mi, 125km
Updated: Tue, 23-Jan-2018 7:55am CST
Overcast
Overcast
 Wind from NW
Wind: NW 12 mph , 19 km/h
Temperature: 21°F , -6°C
Wind Chill: 9°F , -13°C
Dew Point: 19°F , -7°C
Humidity: 93%
Barometer: 30.09 inHg , 1019 hPa
Clouds: Overcast
Visibility: 10 miles , 16 km
Cloud details: Overcast 700 ft
2018/01/23 13:55 KBTA 231355Z AUTO 32010KT 10SM OVC007 M06/M07 A3009 RMK AO2 T10561070
KCNK - Concordia, Kansas, USA
Distance from station: SSW 80mi, 129km
Updated: Tue, 23-Jan-2018 7:55am CST
Clear
Clear
 Wind from NNW
Wind: NNW 5 mph , 7 km/h
Temperature: 16°F , -9°C
Wind Chill: 8°F , -13°C
Dew Point: 12°F , -11°C
Humidity: 86%
Barometer: 30.14 inHg , 1020.7 hPa
Clouds: Clear
Visibility: 10 miles , 16 km
2018/01/23 13:55 KCNK 231355Z AUTO 33004KT 10SM CLR M09/M11 A3014 RMK AO2 SLP224 T10941106
 
KOMA - Omaha/Eppley, Nebraska, USA
Distance from station: NE 82mi, 133km
Updated: Tue, 23-Jan-2018 7:52am CST
Overcast
Overcast
 Wind from NW
Wind: NW 15 mph , 24 km/h
Temperature: 25°F , -4°C
Wind Chill: 13°F , -11°C
Dew Point: 19°F , -7°C
Humidity: 80%
Barometer: 30.12 inHg , 1020 hPa
Clouds: Overcast
Visibility: 10 miles , 16 km
Cloud details: Overcast 1100 ft
2018/01/23 13:52 KOMA 231352Z 32013KT 10SM OVC011 M04/M07 A3012 RMK AO2 SLP211 T10441067
KBVN - Albion Muni, Nebraska, USA
Distance from station: NNW 86mi, 138km
Updated: Tue, 23-Jan-2018 7:55am CST
Overcast
Overcast
 Wind from NW
Wind: NW 10 mph , 17 km/h
Temperature: 21°F , -6°C
Wind Chill: 10°F , -12°C
Dew Point: 19°F , -7°C
Humidity: 93%
Barometer: 30.09 inHg , 1019 hPa
Clouds: Overcast
Visibility: 7 miles , 11 km
Cloud details: Overcast 400 ft
2018/01/23 13:55 KBVN 231355Z AUTO 32009KT 7SM OVC004 M06/M07 A3009 RMK AO2 T10601069
 
KCBF - Council Bluffs, Iowa, USA
Distance from station: ENE 87mi, 139km
Updated: Tue, 23-Jan-2018 7:55am CST
Overcast
Overcast
 Wind from NW
Wind: NW 14 mph , 22 km/h
Temperature: 23°F , -5°C
Wind Chill: 11°F , -12°C
Dew Point: 23°F , -5°C
Humidity: 100%
Barometer: 30.09 inHg , 1019 hPa
Clouds: Overcast
Visibility: 10 miles , 16 km
Cloud details: Overcast 800 ft
2018/01/23 13:55 KCBF 231355Z AUTO 31012KT 10SM OVC008 M05/M05 A3009 RMK AO2
KOFK - Norfolk, Nebraska, USA
Distance from station: N 92mi, 148km
Updated: Tue, 23-Jan-2018 7:56am CST
Light snow, Overcast
Light snow, Overcast
 Wind from WNW
Wind: WNW 13 mph , 20 km/h
Temperature: 25°F , -4°C
Wind Chill: 13°F , -11°C
Dew Point: 19°F , -7°C
Humidity: 80%
Barometer: 30.09 inHg , 1019 hPa
Summary: Light Snow
Clouds: Overcast
Visibility: 9 miles , 14 km
Cloud details: Overcast 700 ft
2018/01/23 13:56 KOFK 231356Z AUTO 30011KT 9SM -SN OVC007 M04/M07 A3009 RMK AO2 UPB02E49SNB15E26B33E42B49 SLP212 P0000 T10391072

Metar display script from Saratoga-Weather.org